Latest Coastal Weather Observations for Larapuna (Eddystone Point)

IDT60701

Issued at 11:42 pm EDT Saturday 10 December 2016 (issued every 10 minutes, with the page automatically refreshed every 10 minutes)

About coastal observations | Map of coastal stations | Coastal observations for TAS | Marine services | Other Formats
Station Details ID: 092045 Name: LARAPUNA (EDDYSTONE POINT) Lat: -40.99 Lon: 148.35 Height: 19.7 m
Data from the previous 72 hours. | See also: Recent months at Larapuna (Eddystone Point)
Date/Time
EDT
Temp
°C
Wind Pressure Rain since
9am
mm
Weather Cloud Vis
km
Sea
Height
m
Swell
Dir  Spd
kts
Gust
kts
hPa Trend Height
m
Period
s
Dir
10/11:30pm 13.6 WSW 5 11 1018.5 - 0.0 - - - - - - -
10/11:00pm 13.6 SW 7 10 1018.2 - 0.0 - - - - - - -
10/10:30pm 14.1 W 14 21 1017.9 - 0.0 - - - - - - -
10/10:00pm 14.4 WSW 13 19 1017.7 - 0.0 - - - - - - -
10/09:30pm 14.6 W 15 20 1017.3 - 0.0 - - - - - - -
10/09:00pm 14.9 W 19 25 1016.5 - 0.0 - - - - - - -
10/08:58pm 14.9 W 19 29 1016.4 - 0.0 - - - - - - -
10/08:30pm 15.3 WNW 19 28 1016.0 - 0.0 - - - - - - -
10/08:25pm 15.3 WNW 18 28 1015.9 - 0.0 - - - - - - -
10/08:00pm 15.6 WNW 20 26 1015.9 - 0.0 - - - - - - -
10/07:49pm 15.9 WNW 23 33 1015.7 - 0.0 - - - - - - -
10/07:30pm 16.1 WNW 24 31 1015.7 - 0.0 - - - - - - -
10/07:00pm 16.3 WNW 24 30 1015.5 - 0.0 - - - - - - -
10/06:30pm 16.8 WNW 23 32 1015.1 - 0.0 - - - - - - -
10/06:00pm 17.6 WNW 22 29 1015.0 - 0.0 - - - - - - -
10/05:30pm 18.2 WNW 22 32 1015.1 - 0.0 - - - - - - -
10/05:09pm 18.8 WNW 17 29 1015.2 - 0.0 - - - - - - -
10/05:00pm 19.2 WNW 15 23 1015.5 - 0.0 - - - - - - -
10/04:30pm 19.0 NW 17 23 1016.1 - 0.0 - - - - - - -
10/04:00pm 19.1 NW 20 28 1016.3 - 0.0 - - - - - - -
10/03:30pm 19.0 WNW 17 24 1016.6 - 0.0 - - - - - - -
10/03:18pm 19.1 WNW 18 28 1016.9 - 0.0 - - - - - - -
10/03:00pm 18.9 WNW 20 27 1016.9 - 0.0 - - - - - - -
10/02:50pm 19.2 WNW 19 29 1016.9 - 0.0 - - - - - - -
10/02:30pm 19.3 NW 17 24 1017.2 - 0.0 - - - - - - -
10/02:06pm 19.0 NW 21 31 1017.2 - 0.0 - - - - - - -
10/02:00pm 18.4 NW 24 31 1017.0 - 0.0 - - - - - - -
10/01:30pm 18.7 NW 21 28 1017.4 - 0.0 - - - - - - -
10/01:00pm 18.5 NW 21 27 1017.4 - 0.0 - - - - - - -
10/12:30pm 18.6 NW 19 27 1017.6 - 0.0 - - - - - - -
10/12:00pm 18.7 NW 15 21 1017.7 - 0.0 - - - - - - -
10/11:30am 18.3 NNW 12 18 1018.0 - 0.0 - - - - - - -
10/11:00am 18.5 NW 10 16 1018.1 - 0.0 - - - - - - -
10/10:30am 17.3 NNW 9 14 1018.3 - 0.0 - - - - - - -
10/10:00am 16.1 NW 12 17 1018.5 - 0.0 - - - - - - -
10/09:30am 16.4 WNW 11 15 1018.6 - 0.0 - - - - - - -
10/09:00am 14.8 WNW 13 18 1018.5 - 0.0 - - - - - - -
10/08:30am 13.1 WNW 10 15 1018.6 - 0.0 - - - - - - -
10/08:00am 12.5 WNW 10 16 1018.4 - 0.0 - - - - - - -
10/07:30am 11.8 WNW 9 14 1018.0 - 0.0 - - - - - - -
10/07:00am 9.5 WNW 8 11 1017.7 - 0.0 - - - - - - -
10/06:30am 8.5 W 11 14 1017.4 - 0.0 - - - - - - -
10/06:00am 8.6 W 11 15 1016.9 - 0.0 - - - - - - -
10/05:30am 7.9 WNW 11 13 1016.9 - 0.0 - - - - - - -
10/05:00am 7.7 W 9 10 1016.5 - 0.0 - - - - - - -
10/04:30am 7.8 W 10 11 1016.5 - 0.0 - - - - - - -
10/04:00am 8.3 SW 6 7 1016.5 - 0.0 - - - - - - -
10/03:30am 8.1 W 9 11 1016.4 - 0.0 - - - - - - -
10/03:00am 8.5 WNW 7 8 1016.3 - 0.0 - - - - - - -
10/02:30am 9.3 WNW 7 8 1016.4 - 0.0 - - - - - - -
10/02:00am 9.9 WSW 5 6 1016.4 - 0.0 - - - - - - -
10/01:30am 9.8 SSW 6 8 1016.6 - 0.0 - - - - - - -
10/01:00am 10.0 WSW 6 7 1016.5 - 0.0 - - - - - - -
10/12:30am 11.1 WSW 5 6 1016.4 - 0.0 - - - - - - -
10/12:00am 11.5 SW 4 5 1016.5 - 0.0 - - - - - - -
 
Date/Time
EDT
Temp
°C
Wind Pressure Rain since
9am
mm
Weather Cloud Vis
km
Sea
Height
m
Swell
Dir  Spd
kts
Gust
kts
hPa Trend Height
m
Period
s
Dir
09/11:30pm 11.5 WSW 4 5 1016.3 - 0.0 - - - - - - -
09/11:00pm 11.2 SW 5 6 1016.2 - 0.0 - - - - - - -
09/10:30pm 12.0 SSE 3 4 1016.0 - 0.0 - - - - - - -
09/10:00pm 11.9 SE 6 7 1015.5 - 0.0 - - - - - - -
09/09:30pm 11.8 ESE 6 7 1015.1 - 0.0 - - - - - - -
09/09:00pm 12.2 ESE 8 10 1014.6 - 0.0 - - - - - - -
09/08:30pm 12.4 ESE 9 11 1014.0 - 0.0 - - - - - - -
09/08:00pm 12.9 ESE 9 11 1013.7 - 0.0 - - - - - - -
09/07:30pm 13.4 SE 9 12 1013.0 - 0.0 - - - - - - -
09/07:00pm 14.0 ESE 9 11 1012.4 - 0.0 - - - - - - -
09/06:30pm 14.2 ESE 12 14 1011.8 - 0.0 - - - - - - -
09/06:00pm 15.0 ESE 13 17 1011.3 - 0.0 - - - - - - -
09/05:30pm 14.2 E 11 14 1010.7 - 0.0 - - - - - - -
09/05:00pm 15.6 E 10 14 1010.2 - 0.0 - - - - - - -
09/04:30pm 16.1 E 11 14 1009.8 - 0.0 - - - - - - -
09/04:00pm 16.6 ENE 12 14 1009.3 - 0.0 - - - - - - -
09/03:30pm 17.4 NE 11 14 1009.1 - 0.0 - - - - - - -
09/03:00pm 17.2 NE 13 14 1008.9 - 0.0 - - - - - - -
09/02:30pm 19.0 NE 9 12 1008.8 - 0.0 - - - - - - -
09/02:00pm 16.8 ENE 7 8 1008.7 - 0.0 - - - - - - -
09/01:30pm 15.7 SE 7 9 1008.4 - 0.0 - - - - - - -
09/01:00pm 16.2 ESE 5 8 1008.1 - 0.0 - - - - - - -
09/12:30pm 16.3 SSE 9 11 1007.9 - 0.0 - - - - - - -
09/12:00pm 17.0 S 13 18 1007.7 - 0.0 - - - - - - -
09/11:30am 17.2 S 18 24 1007.2 - 0.0 - - - - - - -
09/11:00am 16.3 S 17 25 1006.8 - 0.0 - - - - - - -
09/10:47am 14.7 S 15 19 1006.7 - 0.0 - - - - - - -
09/10:30am 15.5 S 7 9 1006.5 - 0.0 - - - - - - -
09/10:00am 16.4 SSW 17 20 1006.1 - 0.0 - - - - - - -
09/09:30am 15.5 SSW 16 23 1005.5 - 0.0 - - - - - - -
09/09:27am 15.1 SSW 14 21 1005.6 - 0.0 - - - - - - -
09/09:00am 14.6 SW 9 12 1005.3 - 14.8 - - - - - - -
09/08:30am 14.4 SSW 11 13 1004.8 - 14.8 - - - - - - -
09/08:00am 12.6 WSW 13 17 1004.1 - 14.8 - - - - - - -
09/07:30am 11.9 WSW 6 12 1003.4 - 14.8 - - - - - - -
09/07:00am 10.6 WSW 11 14 1002.5 - 14.8 - - - - - - -
09/06:30am 9.8 W 12 17 1001.6 - 14.8 - - - - - - -
09/06:00am 9.4 W 13 17 1000.8 - 14.8 - - - - - - -
09/05:30am 9.3 W 15 19 999.8 - 14.8 - - - - - - -
09/05:00am 9.5 W 13 17 999.0 - 14.8 - - - - - - -
09/04:30am 9.9 W 15 22 998.1 - 14.8 - - - - - - -
09/04:00am 10.3 W 14 17 997.3 - 14.8 - - - - - - -
09/03:30am 10.7 W 15 21 996.5 - 14.8 - - - - - - -
09/03:00am 10.7 W 16 21 995.8 - 14.8 - - - - - - -
09/02:30am 11.0 W 17 24 995.1 - 14.8 - - - - - - -
09/02:00am 11.3 W 16 23 994.8 - 14.8 - - - - - - -
09/01:30am 11.6 W 15 21 994.5 - 14.8 - - - - - - -
09/01:01am 12.2 W 17 27 993.9 - 14.8 - - - - - - -
09/01:00am 12.1 W 17 23 993.9 - 14.8 - - - - - - -
09/12:30am 12.6 W 17 27 993.2 - 14.8 - - - - - - -
09/12:14am 12.7 WNW 20 30 992.8 - 14.8 - - - - - - -
09/12:00am 12.8 WNW 19 26 992.6 - 14.8 - - - - - - -
 
Date/Time
EDT
Temp
°C
Wind Pressure Rain since
9am
mm
Weather Cloud Vis
km
Sea
Height
m
Swell
Dir  Spd
kts
Gust
kts
hPa Trend Height
m
Period
s
Dir
08/11:45pm 12.9 W 16 29 992.6 - 14.8 - - - - - - -
08/11:30pm 12.7 W 15 24 992.4 - 14.8 - - - - - - -
08/11:00pm 13.2 WNW 23 33 991.6 - 14.8 - - - - - - -
08/10:30pm 13.2 WNW 23 34 991.8 - 14.8 - - - - - - -
08/10:00pm 13.3 WNW 24 37 990.6 - 14.8 - - - - - - -
08/09:30pm 13.3 WNW 22 33 991.0 - 14.8 - - - - - - -
08/09:19pm 13.4 WNW 26 40 990.6 - 14.8 - - - - - - -
08/09:00pm 13.5 WNW 31 45 988.6 - 14.8 - - - - - - -
08/08:30pm 13.3 NW 31 45 988.9 - 14.8 - - - - - - -
08/08:00pm 13.0 WNW 27 42 989.9 - 14.8 - - - - - - -
08/07:35pm 12.8 NW 25 36 990.5 - 14.8 - - - - - - -
08/07:30pm 13.2 WNW 24 33 990.5 - 14.8 - - - - - - -
08/07:00pm 14.1 NW 25 35 990.6 - 14.2 - - - - - - -
08/06:31pm 13.5 NW 25 35 990.8 - 14.2 - - - - - - -
08/06:30pm 13.4 NW 26 35 990.7 - 14.2 - - - - - - -
08/06:00pm 15.4 NW 27 37 990.5 - 13.6 - - - - - - -
08/05:30pm 15.9 NW 25 37 990.9 - 13.6 - - - - - - -
08/05:04pm 16.0 NW 27 37 991.0 - 13.6 - - - - - - -
08/05:00pm 15.9 NW 27 36 991.0 - 13.6 - - - - - - -
08/04:30pm 16.4 NW 25 39 991.5 - 13.6 - - - - - - -
08/04:05pm 16.1 NW 24 35 991.8 - 13.6 - - - - - - -
08/04:00pm 15.5 NW 24 31 991.9 - 13.6 - - - - - - -
08/03:40pm 14.5 NW 20 31 992.0 - 13.6 - - - - - - -
08/03:30pm 14.1 NW 21 28 992.3 - 13.6 - - - - - - -
08/03:00pm 14.2 NW 21 30 992.4 - 13.4 Recent precip. - - - - - -
08/02:31pm 15.4 NNW 23 35 992.0 - 13.4 - - - - - - -
08/02:30pm 15.4 NNW 23 31 992.0 - 13.4 - - - - - - -
08/02:00pm 15.0 N 23 30 991.8 - 13.0 - - - - - - -
08/01:30pm 15.2 N 24 29 992.6 - 12.2 - - - - - - -
08/01:00pm 15.3 N 26 31 992.2 - 11.0 - - - - - - -
08/12:30pm 15.2 NNE 24 29 992.5 - 10.4 - - - - - - -
08/12:00pm 15.0 NNE 23 27 993.1 - 10.4 Rain - - - - - -
08/11:30am 15.1 NNE 21 24 994.4 - 9.6 - - - - - - -
08/11:00am 15.1 NNE 16 19 995.8 - 7.4 - - - - - - -
08/10:30am 14.6 N 9 12 997.2 - 5.4 - - - - - - -
08/10:00am 15.0 NNW 12 15 998.2 - 3.8 - - - - - - -
08/09:30am 15.3 NNW 14 18 999.1 - 2.0 - - - - - - -
08/09:00am 15.7 NNW 14 18 1000.2 - 4.0 Rain - - - - - -
08/08:30am 15.8 NNW 12 17 1000.8 - 1.6 - - - - - - -
08/08:00am 16.2 N 17 23 1000.7 - 0.0 - - - - - - -
08/07:30am 16.0 NNW 11 15 1001.5 - 0.0 - - - - - - -
08/07:00am 15.7 N 6 9 1000.9 - 0.0 - - - - - - -
08/06:30am 15.4 NNE 8 10 1001.1 - 0.0 - - - - - - -
08/06:00am 15.1 NNE 7 8 1001.4 - 0.0 - - - - - - -
08/05:30am 14.9 NNE 7 8 1002.4 - 0.0 - - - - - - -
08/05:00am 14.7 NNE 11 12 1003.0 - 0.0 - - - - - - -
08/04:30am 14.5 N 9 11 1003.6 - 0.0 - - - - - - -
08/04:00am 14.3 N 10 12 1004.1 - 0.0 - - - - - - -
08/03:30am 14.4 N 13 17 1004.9 - 0.0 - - - - - - -
08/03:00am 14.3 N 15 17 1005.2 - 0.0 - - - - - - -
08/02:30am 14.3 N 13 17 1005.8 - 0.0 - - - - - - -
08/02:00am 14.0 N 9 11 1006.9 - 0.0 - - - - - - -
08/01:30am 13.9 N 10 13 1007.3 - 0.0 - - - - - - -
08/01:00am 12.9 NNW 7 9 1008.1 - 0.0 - - - - - - -
08/12:30am 12.9 NNW 8 11 1008.7 - 0.0 - - - - - - -
08/12:00am 12.9 NNW 10 13 1009.0 - 0.0 - - - - - - -

Other Formats:

Comma delimited format used in spreadsheet applications
http://www.bom.gov.au/fwo/IDT60701/IDT60701.94983.axf

JavaScript Object Notation format (JSON) in row-major order
http://www.bom.gov.au/fwo/IDT60701/IDT60701.94983.json